• Join FlightAware (Why Join?)
  • Login
  • US Flag 
02:50PM EDT


 

Airport Tracker/Info


-or-


 

Live Flight TrackerFlight Track Log ✈ F-HPJG ✈ 22-Jun-2013 ✈ FAOR / JNB - LFPG / CDG

Flight Track Log - Related Links

Times and Time Zones

All times are in EDT time to prevent confusion due to time zone crossing. See the F-HPJG flight status page for this flight to view local times or setup timezone preferences in your user account.

Time Position Orientation Groundspeed Altitude Reporting Facility
EDT Latitude Longitude Course Direction KTS MPH feet Rate Location/Type
01:22PM -26.1280 28.2360 129° Southeast 1 1  Level FlightAware
01:22PM -26.1280 28.2350 270° West 1 1 240 Level FlightAware
01:25PM -25.8590 28.1444 343° North  Level Estimated
01:26PM -25.7367 28.1034 343° North  Level Estimated
01:27PM -25.6143 28.0624 343° North  Level Estimated
01:27PM -26.1280 28.2360 343° North 3 3  Level FlightAware
01:27PM -26.1280 28.2370 90° East 7 8 360 Level FlightAware
01:28PM -26.1280 28.2380 90° East 7 8 360 Level FlightAware
01:28PM -26.1290 28.2380 180° South 4 5 420 Level FlightAware
01:29PM -26.1300 28.2380 180° South 7 8 420 Level FlightAware
01:30PM -26.1310 28.2370 222° Southwest 11 13 420 Level FlightAware
01:30PM -26.1320 28.2370 180° South 9 10 480 Level FlightAware
01:31PM -26.1330 28.2360 222° Southwest 8 9 480 Level FlightAware
01:31PM -26.1340 28.2360 180° South 7 8 540 Level FlightAware
01:31PM -26.1350 28.2360 180° South 5 6 540 Level FlightAware
01:32PM -26.1360 28.2360 180° South 8 9 540 Level FlightAware
01:33PM -26.1370 28.2350 222° Southwest 3 3 600 Level FlightAware
01:33PM -26.1380 28.2350 180° South 12 14 660 Level FlightAware
01:34PM -26.1390 28.2350 180° South 15 17 720 Level FlightAware
01:34PM -26.1400 28.2340 222° Southwest 11 13 720 Level FlightAware
01:35PM -26.1420 28.2340 180° South 5 6 780 Level FlightAware
01:35PM -26.1430 28.2330 222° Southwest 3 3 900 Level FlightAware
01:36PM -26.1440 28.2330 180° South 9 10 1,020 Level FlightAware
01:36PM -26.1450 28.2330 180° South 7 8 1,140 Level FlightAware
01:37PM -26.1460 28.2350 119° Southeast 6 7 1,260 Level FlightAware
01:39PM -26.1450 28.2350 343° North 30 35 1,740 Level FlightAware
01:40PM -25.8974 28.1512 343° North  Level Estimated
01:40PM -26.1400 28.2360 10° North 92 106  Level FlightAware
01:41PM -26.1040 28.2470 15° North 188 216 5,400 5,580 Climbing FlightAware
01:41PM -26.0960 28.2500 19° North 197 227 5,600 1,680 Climbing FlightAware
01:41PM -26.0710 28.2570 14° North 190 219 6,400 1,680 Climbing FlightAware
01:42PM -26.0400 28.2680 18° North 188 216 7,300 1,560 Climbing FlightAware
01:42PM -26.0190 28.2750 17° North 203 234 8,000 1,620 Climbing FlightAware
01:42PM -26.0050 28.2750 360° North 197 227 8,400 1,560 Climbing FlightAware
01:43PM -25.9910 28.2710 346° North 205 236 8,800 1,020 Climbing FlightAware
01:43PM -25.9600 28.2600 342° North 233 268 9,200 720 Climbing FlightAware
01:44PM -25.9320 28.2520 346° North 270 311 9,500 1,200 Climbing FlightAware
01:44PM -25.8800 28.2360 345° North 284 327 10,500 1,800 Climbing FlightAware
01:45PM -25.8200 28.2210 347° North 292 336 12,100 2,100 Climbing FlightAware
01:46PM -25.7650 28.2100 350° North 299 344 13,500 1,920 Climbing FlightAware
01:46PM -25.7020 28.1940 347° North 312 359 14,900 1,860 Climbing FlightAware
01:47PM -25.6450 28.1800 348° North 314 361 16,200 1,440 Climbing FlightAware
01:48PM -25.5750 28.1660 350° North 346 398 17,000 960 Climbing FlightAware
01:48PM -25.5090 28.1500 348° North 382 440 17,600 900 Climbing FlightAware
01:49PM -25.4360 28.1320 347° North 413 475 18,200 1,080 Climbing FlightAware
01:50PM -25.3600 28.1150 349° North 427 491 19,100 1,800 Climbing FlightAware
01:51PM -25.2720 28.0950 348° North 429 494 20,800 1,860 Climbing FlightAware
01:51PM -25.1940 28.0770 348° North 430 495 21,800 1,620 Climbing FlightAware
01:52PM -25.1130 28.0580 348° North 444 511 23,000 1,620 Climbing FlightAware
01:53PM -25.0210 28.0370 348° North 444 511 24,100 1,440 Climbing FlightAware
01:53PM -24.9580 28.0230 349° North 456 525 24,800 1,200 Climbing FlightAware
01:54PM -24.8740 28.0030 348° North 460 529 25,500 1,080 Climbing FlightAware
01:54PM -24.7880 27.9840 349° North 477 549 26,300 1,080 Climbing FlightAware
01:55PM -24.6910 27.9620 348° North 477 549 27,100 1,200 Climbing FlightAware
01:56PM -24.6000 27.9410 348° North 490 564 28,000 1,080 Climbing FlightAware
01:57PM -24.5010 27.9180 348° North 496 571 28,700 1,200 Climbing FlightAware
01:57PM -24.3980 27.8950 349° North 494 568 29,800 1,440 Climbing FlightAware
01:58PM -24.3090 27.8750 348° North 492 566 30,800 1,500 Climbing FlightAware
01:59PM -24.2220 27.8550 348° North 478 550 31,800 1,080 Climbing FlightAware
01:59PM -24.1320 27.8350 349° North 493 567 32,300 840 Climbing FlightAware
02:00PM -24.0640 27.8190 348° North 495 570 32,800 1,680 Climbing FlightAware
02:01PM -23.9670 27.7980 349° North 473 544 34,400 1,560 Climbing FlightAware
02:01PM -23.8820 27.7780 348° North 474 545 35,000 420 Climbing FlightAware
02:02PM -23.7960 27.7590 349° North 480 552 35,000  Level FlightAware
02:03PM -23.6980 27.7370 348° North 479 551 35,000  Level FlightAware
02:03PM -23.6110 27.7170 348° North 476 548 35,000  Level FlightAware
02:04PM -23.5240 27.6980 349° North 475 547 35,000  Level FlightAware
02:05PM -23.4410 27.6790 348° North 474 545 35,000  Level FlightAware
02:05PM -23.3660 27.6640 350° North 474 545 35,000  Level FlightAware
02:06PM -23.2730 27.6440 349° North 474 545 35,000  Level FlightAware
02:07PM -23.2070 27.6300 349° North 474 545 35,000  Level FlightAware
02:08PM -23.1170 27.6110 349° North 474 545 35,000  Level FlightAware
02:08PM -23.0520 27.5970 349° North 474 545 35,000  Level FlightAware
02:09PM -22.9620 27.5780 349° North 474 545 35,000  Level FlightAware
02:10PM -22.8960 27.5640 349° North 474 545 35,000  Level FlightAware
02:10PM -22.8270 27.5490 349° North 474 545 35,000  Level FlightAware
02:11PM -22.7410 27.5310 349° North 474 545 35,000  Level FlightAware
02:12PM -22.6750 27.5170 349° North 474 545 35,000  Level FlightAware
02:13PM -22.5850 27.4990 350° North 474 545 35,000  Level FlightAware
02:13PM -22.5210 27.4850 349° North 474 545 35,000  Level FlightAware
02:14PM -22.4310 27.4660 349° North 474 545 35,000  Level FlightAware
02:15PM -22.3640 27.4520 349° North 474 545 35,000  Level FlightAware
02:17PM -22.1212 27.3737 343° North  Level Estimated
02:18PM -21.9987 27.3343 343° North  Level Estimated
02:19PM -21.8763 27.2950 343° North  Level Estimated
02:20PM -21.7538 27.2558 343° North  Level Estimated
02:21PM -21.6313 27.2166 343° North  Level Estimated
02:22PM -21.5099 27.1778 343° North  Level Estimated
02:23PM -21.3884 27.1391 343° North  Level Estimated
02:24PM -21.2668 27.1004 343° North  Level Estimated
02:25PM -21.1453 27.0618 343° North  Level Estimated
02:26PM -21.0238 27.0233 344° North  Level Estimated
02:27PM -20.9023 26.9848 344° North  Level Estimated
02:28PM -20.7807 26.9464 344° North  Level Estimated
02:29PM -20.6591 26.9081 344° North  Level Estimated
02:30PM -20.5376 26.8698 344° North  Level Estimated
02:31PM -20.4160 26.8315 344° North  Level Estimated
02:32PM -20.2944 26.7934 344° North  Level Estimated
02:33PM -20.1728 26.7553 344° North  Level Estimated
02:34PM -20.0513 26.7172 344° North  Level Estimated
02:35PM -19.9296 26.6792 344° North  Level Estimated
02:36PM -19.8080 26.6413 344° North  Level Estimated
02:37PM -19.6864 26.6034 344° North  Level Estimated
02:38PM -19.5648 26.5656 344° North  Level Estimated
02:39PM -19.4431 26.5278 344° North  Level Estimated
02:40PM -19.3215 26.4901 344° North  Level Estimated
02:41PM -19.1998 26.4525 344° North  Level Estimated
02:42PM -19.0782 26.4149 344° North  Level Estimated
02:43PM -18.9565 26.3773 344° North  Level Estimated
02:44PM -18.8348 26.3399 344° North  Level Estimated
02:45PM -18.7132 26.3024 344° North  Level Estimated
02:46PM -18.5915 26.2651 344° North  Level Estimated
02:47PM -18.4698 26.2278 344° North  Level Estimated
02:48PM -18.3480 26.1905 344° North  Level Estimated
02:49PM -18.2263 26.1533 344° North  Level Estimated
02:50PM -18.1046 26.1161 344° North  Level Estimated
02:51PM -17.9829 26.0790 344° North  Level Estimated
02:52PM -17.8612 26.0419 344° North  Level Estimated
02:53PM -17.7394 26.0049 344° North  Level Estimated
02:54PM -17.6177 25.9680 344° North  Level Estimated
02:55PM -17.4959 25.9311 344° North  Level Estimated
02:56PM -17.3742 25.8942 344° North  Level Estimated
02:57PM -17.2524 25.8574 344° North  Level Estimated
02:58PM -17.1306 25.8206 344° North  Level Estimated
02:59PM -17.0088 25.7839 344° North  Level Estimated
03:00PM -16.8870 25.7472 344° North  Level Estimated
03:01PM -16.7652 25.7106 344° North  Level Estimated
03:02PM -16.6434 25.6741 344° North  Level Estimated
03:03PM -16.5216 25.6375 344° North  Level Estimated
03:04PM -16.3998 25.6011 344° North  Level Estimated
03:05PM -16.2780 25.5646 344° North  Level Estimated
03:06PM -16.1562 25.5282 344° North  Level Estimated
03:07PM -16.0343 25.4919 344° North  Level Estimated
03:08PM -15.9125 25.4556 344° North  Level Estimated
03:09PM -15.7907 25.4193 344° North  Level Estimated
03:10PM -15.6688 25.3831 344° North  Level Estimated
03:11PM -15.5470 25.3470 344° North  Level Estimated
03:12PM -15.4251 25.3108 344° North  Level Estimated
03:13PM -15.3032 25.2748 344° North  Level Estimated
03:14PM -15.1814 25.2387 344° North  Level Estimated
03:15PM -15.0595 25.2027 344° North  Level Estimated
03:16PM -14.9376 25.1668 344° North  Level Estimated
03:17PM -14.8157 25.1308 344° North  Level Estimated
03:18PM -14.6938 25.0950 344° North  Level Estimated
03:19PM -14.5719 25.0591 344° North  Level Estimated
03:20PM -14.4500 25.0233 344° North  Level Estimated
03:21PM -14.3281 24.9876 344° North  Level Estimated
03:22PM -14.2071 24.9521 344° North  Level Estimated
03:23PM -14.0862 24.9167 344° North  Level Estimated
03:24PM -13.9652 24.8814 344° North  Level Estimated
03:25PM -13.8443 24.8461 344° North  Level Estimated
03:26PM -13.7233 24.8108 344° North  Level Estimated
03:27PM -13.6024 24.7755 344° North  Level Estimated
03:28PM -13.4814 24.7403 344° North  Level Estimated
03:29PM -13.3604 24.7051 344° North  Level Estimated
03:30PM -13.2394 24.6700 344° North  Level Estimated
03:31PM -13.1184 24.6349 344° North  Level Estimated
03:32PM -12.9974 24.5998 344° North  Level Estimated
03:33PM -12.8764 24.5648 344° North  Level Estimated
03:34PM -12.7554 24.5298 344° North  Level Estimated
03:35PM -12.6344 24.4948 344° North  Level Estimated
03:36PM -12.5134 24.4599 344° North  Level Estimated
03:37PM -12.3924 24.4250 344° North  Level Estimated
03:38PM -12.2714 24.3901 344° North  Level Estimated
03:39PM -12.1504 24.3552 344° North  Level Estimated
03:40PM -12.0293 24.3204 344° North  Level Estimated
03:41PM -11.9083 24.2857 344° North  Level Estimated
03:42PM -11.7873 24.2509 344° North  Level Estimated
03:43PM -11.6662 24.2162 344° North  Level Estimated
03:44PM -11.5452 24.1815 344° North  Level Estimated
03:45PM -11.4241 24.1468 344° North  Level Estimated
03:46PM -11.3031 24.1122 344° North  Level Estimated
03:47PM -11.1820 24.0776 344° North  Level Estimated
03:48PM -11.0610 24.0430 344° North  Level Estimated
03:49PM -10.9399 24.0085 344° North  Level Estimated
03:50PM -10.8188 23.9740 344° North  Level Estimated
03:51PM -10.6977 23.9395 344° North  Level Estimated
03:52PM -10.5767 23.9051 344° North  Level Estimated
03:53PM -10.4556 23.8706 344° North  Level Estimated
03:54PM -10.3345 23.8362 344° North  Level Estimated
03:55PM -10.2134 23.8018 344° North  Level Estimated
03:56PM -10.0923 23.7675 344° North  Level Estimated
03:57PM -9.9712 23.7332 344° North  Level Estimated
03:58PM -9.8501 23.6989 344° North  Level Estimated
03:59PM -9.7290 23.6646 344° North  Level Estimated
04:00PM -9.6079 23.6304 344° North  Level Estimated
04:01PM -9.4868 23.5961 344° North  Level Estimated
04:02PM -9.3657 23.5619 344° North  Level Estimated
04:03PM -9.2446 23.5278 344° North  Level Estimated
04:04PM -9.1234 23.4936 344° North  Level Estimated
04:05PM -9.0023 23.4595 344° North  Level Estimated
04:06PM -8.8812 23.4254 344° North  Level Estimated
04:07PM -8.7601 23.3913 344° North  Level Estimated
04:08PM -8.6389 23.3572 344° North  Level Estimated
04:09PM -8.5178 23.3232 344° North  Level Estimated
04:10PM -8.3967 23.2892 344° North  Level Estimated
04:11PM -8.2755 23.2552 344° North  Level Estimated
04:12PM -8.1544 23.2212 344° North  Level Estimated
04:13PM -8.0332 23.1873 344° North  Level Estimated
04:14PM -7.9121 23.1533 344° North  Level Estimated
04:15PM -7.7909 23.1194 344° North  Level Estimated
04:16PM -7.6698 23.0855 345° North  Level Estimated
04:17PM -7.5486 23.0516 345° North  Level Estimated
04:18PM -7.4275 23.0178 345° North  Level Estimated
04:19PM -7.3063 22.9839 345° North  Level Estimated
04:20PM -7.1851 22.9501 345° North  Level Estimated
04:21PM -7.0640 22.9163 345° North  Level Estimated
04:22PM -6.9428 22.8825 345° North  Level Estimated
04:23PM -6.8216 22.8488 345° North  Level Estimated
04:24PM -6.7004 22.8150 345° North  Level Estimated
04:25PM -6.5793 22.7813 345° North  Level Estimated
04:26PM -6.4581 22.7476 345° North  Level Estimated
04:27PM -6.3369 22.7139 345° North  Level Estimated
04:28PM -6.2157 22.6802 345° North  Level Estimated
04:29PM -6.0945 22.6465 345° North  Level Estimated
04:30PM -5.9734 22.6129 345° North  Level Estimated
04:31PM -5.8522 22.5792 345° North  Level Estimated
04:32PM -5.7310 22.5456 345° North  Level Estimated
04:33PM -5.6098 22.5120 345° North  Level Estimated
04:34PM -5.4886 22.4784 345° North  Level Estimated
04:35PM -5.3674 22.4448 345° North  Level Estimated
04:36PM -5.2462 22.4113 345° North  Level Estimated
04:37PM -5.1250 22.3777 345° North  Level Estimated
04:38PM -5.0038 22.3442 345° North  Level Estimated
04:39PM -4.8826 22.3106 345° North  Level Estimated
04:40PM -4.7614 22.2771 345° North  Level Estimated
04:41PM -4.6402 22.2436 345° North  Level Estimated
04:42PM -4.5189 22.2101 345° North  Level Estimated
04:43PM -4.3977 22.1766 345° North  Level Estimated
04:44PM -4.2765 22.1432 345° North  Level Estimated
04:45PM -4.1553 22.1097 345° North  Level Estimated
04:46PM -4.0341 22.0763 345° North  Level Estimated
04:47PM -3.9129 22.0428 345° North  Level Estimated
04:48PM -3.7917 22.0094 345° North  Level Estimated
04:49PM -3.6704 21.9760 345° North  Level Estimated
04:50PM -3.5492 21.9426 345° North  Level Estimated
04:51PM -3.4280 21.9091 345° North  Level Estimated
04:52PM -3.3068 21.8757 345° North  Level Estimated
04:53PM -3.1856 21.8424 345° North  Level Estimated
04:54PM -3.0643 21.8090 345° North  Level Estimated
04:55PM -2.9431 21.7756 345° North  Level Estimated
04:56PM -2.8219 21.7422 345° North  Level Estimated
04:57PM -2.7006 21.7089 345° North  Level Estimated
04:58PM -2.5794 21.6755 345° North  Level Estimated
04:59PM -2.4582 21.6422 345° North  Level Estimated
05:00PM -2.3370 21.6088 345° North  Level Estimated
05:01PM -2.2157 21.5755 345° North  Level Estimated
05:02PM -2.0945 21.5422 345° North  Level Estimated
05:03PM -1.9733 21.5089 345° North  Level Estimated
05:04PM -1.8520 21.4755 345° North  Level Estimated
05:05PM -1.7308 21.4422 345° North  Level Estimated
05:06PM -1.6096 21.4089 345° North  Level Estimated
05:07PM -1.4883 21.3756 345° North  Level Estimated
05:08PM -1.3671 21.3423 345° North  Level Estimated
05:09PM -1.2458 21.3090 345° North  Level Estimated
05:10PM -1.1246 21.2757 345° North  Level Estimated
05:11PM -1.0034 21.2424 345° North  Level Estimated
05:12PM -0.8821 21.2091 345° North  Level Estimated
05:13PM -0.7609 21.1758 345° North  Level Estimated
05:14PM -0.6396 21.1425 345° North  Level Estimated
05:15PM -0.5184 21.1093 345° North  Level Estimated
05:16PM -0.3972 21.0760 345° North  Level Estimated
05:17PM -0.2759 21.0427 345° North  Level Estimated
05:18PM -0.1547 21.0094 345° North  Level Estimated
05:19PM -0.0334 20.9762 345° North  Level Estimated
05:20PM 0.0878 20.9429 345° North  Level Estimated
05:21PM 0.2090 20.9096 345° North  Level Estimated
05:22PM 0.3303 20.8763 345° North  Level Estimated
05:23PM 0.4515 20.8430 345° North  Level Estimated
05:24PM 0.5728 20.8097 345° North  Level Estimated
05:25PM 0.6940 20.7765 345° North  Level Estimated
05:26PM 0.8152 20.7432 345° North  Level Estimated
05:27PM 0.9365 20.7099 345° North  Level Estimated
05:28PM 1.0577 20.6766 345° North  Level Estimated
05:29PM 1.1790 20.6433 345° North  Level Estimated
05:30PM 1.3002 20.6100 345° North  Level Estimated
05:31PM 1.4214 20.5767 345° North  Level Estimated
05:32PM 1.5427 20.5434 345° North  Level Estimated
05:33PM 1.6639 20.5101 345° North  Level Estimated
05:34PM 1.7852 20.4768 345° North  Level Estimated
05:35PM 1.9064 20.4435 345° North  Level Estimated
05:36PM 2.0276 20.4101 345° North  Level Estimated
05:37PM 2.1488 20.3768 345° North  Level Estimated
05:38PM 2.2701 20.3435 345° North  Level Estimated
05:39PM 2.3913 20.3101 345° North  Level Estimated
05:40PM 2.5125 20.2768 345° North  Level Estimated
05:41PM 2.6338 20.2435 345° North  Level Estimated
05:42PM 2.7550 20.2101 345° North  Level Estimated
05:43PM 2.8762 20.1767 345° North  Level Estimated
05:44PM 2.9975 20.1434 345° North  Level Estimated
05:45PM 3.1187 20.1100 345° North  Level Estimated
05:46PM 3.2399 20.0766 345° North  Level Estimated
05:47PM 3.3611 20.0432 345° North  Level Estimated
05:48PM 3.4823 20.0098 345° North  Level Estimated
05:49PM 3.6036 19.9764 345° North  Level Estimated
05:50PM 3.7248 19.9430 345° North  Level Estimated
05:51PM 3.8460 19.9095 345° North  Level Estimated
05:52PM 3.9672 19.8761 345° North  Level Estimated
05:53PM 4.0884 19.8427 345° North  Level Estimated
05:54PM 4.2097 19.8092 345° North  Level Estimated
05:55PM 4.3309 19.7757 345° North  Level Estimated
05:56PM 4.4521 19.7423 345° North  Level Estimated
05:57PM 4.5733 19.7088 345° North  Level Estimated
05:58PM 4.6945 19.6753 345° North  Level Estimated
05:59PM 4.8157 19.6418 345° North  Level Estimated
06:00PM 4.9369 19.6082 345° North  Level Estimated
06:01PM 5.0581 19.5747 345° North  Level Estimated
06:02PM 5.1793 19.5411 345° North  Level Estimated
06:03PM 5.3005 19.5076 345° North  Level Estimated
06:04PM 5.4217 19.4740 345° North  Level Estimated
06:05PM 5.5429 19.4404 345° North  Level Estimated
06:06PM 5.6641 19.4068 345° North  Level Estimated
06:07PM 5.7853 19.3732 345° North  Level Estimated
06:08PM 5.9065 19.3396 345° North  Level Estimated
06:09PM 6.0277 19.3059 345° North  Level Estimated
06:10PM 6.1489 19.2723 345° North  Level Estimated
06:11PM 6.2700 19.2386 345° North  Level Estimated
06:12PM 6.3912 19.2049 345° North  Level Estimated
06:13PM 6.5124 19.1712 345° North  Level Estimated
06:14PM 6.6336 19.1375 345° North  Level Estimated
06:15PM 6.7548 19.1037 345° North  Level Estimated
06:16PM 6.8759 19.0700 345° North  Level Estimated
06:17PM 6.9971 19.0362 345° North  Level Estimated
06:18PM 7.1183 19.0024 345° North  Level Estimated
06:19PM 7.2394 18.9686 345° North  Level Estimated
06:20PM 7.3606 18.9348 345° North  Level Estimated
06:21PM 7.4818 18.9009 345° North  Level Estimated
06:22PM 7.6029 18.8671 345° North  Level Estimated
06:23PM 7.7241 18.8332 345° North  Level Estimated
06:24PM 7.8452 18.7993 345° North  Level Estimated
06:25PM 7.9664 18.7654 345° North  Level Estimated
06:26PM 8.0875 18.7314 344° North  Level Estimated
06:27PM 8.2087 18.6975 344° North  Level Estimated
06:28PM 8.3298 18.6635 344° North  Level Estimated
06:29PM 8.4510 18.6295 344° North  Level Estimated
06:30PM 8.5721 18.5954 344° North  Level Estimated
06:31PM 8.6932 18.5614 344° North  Level Estimated
06:32PM 8.8144 18.5273 344° North  Level Estimated
06:33PM 8.9355 18.4932 344° North  Level Estimated
06:34PM 9.0566 18.4591 344° North  Level Estimated
06:35PM 9.1777 18.4250 344° North  Level Estimated
06:36PM 9.2989 18.3908 344° North  Level Estimated
06:37PM 9.4200 18.3566 344° North  Level Estimated
06:38PM 9.5411 18.3224 344° North  Level Estimated
06:39PM 9.6622 18.2882 344° North  Level Estimated
06:40PM 9.7833 18.2539 344° North  Level Estimated
06:41PM 9.9044 18.2196 344° North  Level Estimated
06:42PM 10.0255 18.1853 344° North  Level Estimated
06:43PM 10.1466 18.1510 344° North  Level Estimated
06:44PM 10.2677 18.1166 344° North  Level Estimated
06:45PM 10.3888 18.0823 344° North  Level Estimated
06:46PM 10.5098 18.0478 344° North  Level Estimated
06:47PM 10.6309 18.0134 344° North  Level Estimated
06:48PM 10.7520 17.9789 344° North  Level Estimated
06:49PM 10.8731 17.9444 344° North  Level Estimated
06:50PM 10.9941 17.9099 344° North  Level Estimated
06:51PM 11.1152 17.8754 344° North  Level Estimated
06:52PM 11.2362 17.8408 344° North  Level Estimated
06:53PM 11.3573 17.8062 344° North  Level Estimated
06:54PM 11.4784 17.7715 344° North  Level Estimated
06:55PM 11.5994 17.7369 344° North  Level Estimated
06:56PM 11.7205 17.7022 344° North  Level Estimated
06:57PM 11.8415 17.6674 344° North  Level Estimated
06:58PM 11.9625 17.6327 344° North  Level Estimated
06:59PM 12.0836 17.5979 344° North  Level Estimated
07:00PM 12.2046 17.5631 344° North  Level Estimated
07:01PM 12.3256 17.5282 344° North  Level Estimated
07:02PM 12.4466 17.4933 344° North  Level Estimated
07:03PM 12.5676 17.4584 344° North  Level Estimated
07:04PM 12.6887 17.4235 344° North  Level Estimated
07:05PM 12.8097 17.3885 344° North  Level Estimated
07:06PM 12.9306 17.3534 344° North  Level Estimated
07:07PM 13.0517 17.3184 344° North  Level Estimated
07:08PM 13.1726 17.2833 344° North  Level Estimated
07:09PM 13.2936 17.2482 344° North  Level Estimated
07:10PM 13.4146 17.2130 344° North  Level Estimated
07:11PM 13.5356 17.1778 344° North  Level Estimated
07:12PM 13.6566 17.1426 344° North  Level Estimated
07:13PM 13.7775 17.1073 344° North  Level Estimated
07:14PM 13.8985 17.0720 344° North  Level Estimated
07:15PM 14.0195 17.0367 344° North  Level Estimated
07:16PM 14.1404 17.0013 344° North  Level Estimated
07:17PM 14.2613 16.9659 344° North  Level Estimated
07:18PM 14.3823 16.9305 344° North  Level Estimated
07:19PM 14.5032 16.8950 344° North  Level Estimated
07:20PM 14.6242 16.8594 344° North  Level Estimated
07:21PM 14.7451 16.8239 344° North  Level Estimated
07:22PM 14.8660 16.7883 344° North  Level Estimated
07:23PM 14.9869 16.7526 344° North  Level Estimated
07:24PM 15.1078 16.7169 344° North  Level Estimated
07:25PM 15.2287 16.6812 344° North  Level Estimated
07:26PM 15.3496 16.6454 344° North  Level Estimated
07:27PM 15.4705 16.6096 344° North  Level Estimated
07:28PM 15.5914 16.5738 344° North  Level Estimated
07:29PM 15.7123 16.5379 344° North  Level Estimated
07:30PM 15.8331 16.5019 344° North  Level Estimated
07:31PM 15.9540 16.4660 344° North  Level Estimated
07:32PM 16.0749 16.4299 344° North  Level Estimated
07:33PM 16.1957 16.3939 344° North  Level Estimated
07:34PM 16.3166 16.3578 344° North  Level Estimated
07:35PM 16.4374 16.3216 344° North  Level Estimated
07:36PM 16.5583 16.2854 344° North  Level Estimated
07:37PM 16.6791 16.2491 344° North  Level Estimated
07:38PM 16.7999 16.2129 344° North  Level Estimated
07:39PM 16.9207 16.1765 344° North  Level Estimated
07:40PM 17.0415 16.1401 344° North  Level Estimated
07:41PM 17.1624 16.1037 344° North  Level Estimated
07:42PM 17.2832 16.0672 344° North  Level Estimated
07:43PM 17.4039 16.0307 344° North  Level Estimated
07:44PM 17.5247 15.9941 344° North  Level Estimated
07:45PM 17.6455 15.9575 344° North  Level Estimated
07:46PM 17.7663 15.9208 344° North  Level Estimated
07:47PM 17.8871 15.8841 344° North  Level Estimated
07:48PM 18.0078 15.8473 344° North  Level Estimated
07:49PM 18.1286 15.8105 344° North  Level Estimated
07:50PM 18.2493 15.7737 344° North  Level Estimated
07:51PM 18.3701 15.7367 344° North  Level Estimated
07:52PM 18.4908 15.6997 344° North  Level Estimated
07:53PM 18.6115 15.6627 344° North  Level Estimated
07:54PM 18.7322 15.6256 344° North  Level Estimated
07:55PM 18.8529 15.5885 344° North  Level Estimated
07:56PM 18.9736 15.5513 344° North  Level Estimated
07:57PM 19.0943 15.5141 344° North  Level Estimated
07:58PM 19.2150 15.4768 344° North  Level Estimated
07:59PM 19.3357 15.4394 344° North  Level Estimated
08:00PM 19.4564 15.4020 344° North  Level Estimated
08:01PM 19.5770 15.3645 344° North  Level Estimated
08:02PM 19.6977 15.3270 344° North  Level Estimated
08:03PM 19.8183 15.2894 344° North  Level Estimated
08:04PM 19.9390 15.2518 344° North  Level Estimated
08:05PM 20.0596 15.2141 344° North  Level Estimated
08:06PM 20.1802 15.1764 344° North  Level Estimated
08:07PM 20.3008 15.1386 344° North  Level Estimated
08:08PM 20.4214 15.1007 344° North  Level Estimated
08:09PM 20.5420 15.0628 344° North  Level Estimated
08:10PM 20.6626 15.0248 344° North  Level Estimated
08:11PM 20.7832 14.9867 344° North  Level Estimated
08:12PM 20.9038 14.9486 344° North  Level Estimated
08:13PM 21.0244 14.9105 344° North  Level Estimated
08:14PM 21.1449 14.8722 344° North  Level Estimated
08:15PM 21.2655 14.8340 344° North  Level Estimated
08:16PM 21.3860 14.7956 343° North  Level Estimated
08:17PM 21.5065 14.7572 343° North  Level Estimated
08:18PM 21.6271 14.7187 343° North  Level Estimated
08:19PM 21.7476 14.6802 343° North  Level Estimated
08:20PM 21.8681 14.6416 343° North  Level Estimated
08:21PM 21.9886 14.6029 343° North  Level Estimated
08:22PM 22.1091 14.5641 343° North  Level Estimated
08:23PM 22.2295 14.5253 343° North  Level Estimated
08:24PM 22.3500 14.4865 343° North  Level Estimated
08:25PM 22.4705 14.4475 343° North  Level Estimated
08:26PM 22.5909 14.4085 343° North  Level Estimated
08:27PM 22.7114 14.3694 343° North  Level Estimated
08:28PM 22.8318 14.3303 343° North  Level Estimated
08:29PM 22.9522 14.2911 343° North  Level Estimated
08:30PM 23.0726 14.2518 343° North  Level Estimated
08:31PM 23.1930 14.2124 343° North  Level Estimated
08:32PM 23.3134 14.1730 343° North  Level Estimated
08:33PM 23.4338 14.1335 343° North  Level Estimated
08:34PM 23.5542 14.0939 343° North  Level Estimated
08:35PM 23.6745 14.0543 343° North  Level Estimated
08:36PM 23.7949 14.0146 343° North  Level Estimated
08:37PM 23.9152 13.9748 343° North  Level Estimated
08:38PM 24.0355 13.9349 343° North  Level Estimated
08:39PM 24.1559 13.8950 343° North  Level Estimated
08:40PM 24.2762 13.8549 343° North  Level Estimated
08:41PM 24.3965 13.8149 343° North  Level Estimated
08:42PM 24.5168 13.7747 343° North  Level Estimated
08:43PM 24.6371 13.7345 343° North  Level Estimated
08:44PM 24.7573 13.6941 343° North  Level Estimated
08:45PM 24.8776 13.6537 343° North  Level Estimated
08:46PM 24.9978 13.6132 343° North  Level Estimated
08:47PM 25.1181 13.5727 343° North  Level Estimated
08:48PM 25.2383 13.5321 343° North  Level Estimated
08:49PM 25.3585 13.4913 343° North  Level Estimated
08:50PM 25.4787 13.4505 343° North  Level Estimated
08:51PM 25.5989 13.4096 343° North  Level Estimated
08:52PM 25.7191 13.3687 343° North  Level Estimated
08:53PM 25.8393 13.3277 343° North  Level Estimated
08:54PM 25.9594 13.2865 343° North  Level Estimated
08:55PM 26.0796 13.2453 343° North  Level Estimated
08:56PM 26.1997 13.2040 343° North  Level Estimated
08:57PM 26.3198 13.1626 343° North  Level Estimated
08:58PM 26.4399 13.1212 343° North  Level Estimated
08:59PM 26.5600 13.0796 343° North  Level Estimated
09:00PM 26.6801 13.0380 343° North  Level Estimated
09:01PM 26.8002 12.9962 343° North  Level Estimated
09:02PM 26.9202 12.9544 343° North  Level Estimated
09:03PM 27.0403 12.9125 343° North  Level Estimated
09:04PM 27.1603 12.8705 343° North  Level Estimated
09:05PM 27.2803 12.8284 343° North  Level Estimated
09:05PM 30.7170 15.5290 343° North 515 593 40,000  Level FlightAware
09:06PM 27.4004 12.7862 343° North  Level Estimated
09:06PM 30.8410 15.4940 346° North 510 587 40,000  Level FlightAware
09:06PM 30.9460 15.4650 347° North 510 587 40,000  Level FlightAware
09:07PM 31.0850 15.4250 346° North 515 593 40,000  Level FlightAware
09:08PM 31.1800 15.3980 346° North 514 592 40,000  Level FlightAware
09:09PM 31.2710 15.3720 346° North 513 590 40,000  Level FlightAware
09:09PM 31.3770 15.3420 346° North 514 592 40,000  Level FlightAware
09:10PM 31.4690 15.3150 346° North 515 593 40,000  Level FlightAware
09:11PM 31.5960 15.2840 348° North 508 585 40,000  Level FlightAware
09:12PM 31.6920 15.2590 348° North 511 588 40,000  Level FlightAware
09:12PM 31.7970 15.2320 348° North 514 592 40,000  Level FlightAware
09:13PM 31.8920 15.2080 348° North 523 602 40,000  Level FlightAware
09:14PM 31.9820 15.1840 347° North 524 603 40,000  Level FlightAware
09:14PM 32.0830 15.1580 348° North 524 603 40,000  Level FlightAware
09:15PM 32.2000 15.1280 348° North 523 602 40,000  Level FlightAware
09:16PM 32.2910 15.1040 347° North 513 590 40,000  Level FlightAware
09:17PM 32.4030 15.0820 351° North 517 595 40,000  Level FlightAware
09:17PM 32.4970 15.0650 351° North 518 596 40,000  Level FlightAware
09:18PM 32.5950 15.0460 351° North 518 596 40,000  Level FlightAware
09:19PM 32.7020 15.0270 352° North 521 600 40,000  Level FlightAware
09:19PM 32.7950 15.0100 351° North 519 597 40,000  Level FlightAware
09:20PM 32.9030 14.9900 351° North 519 597 40,000  Level FlightAware
09:21PM 32.9880 14.9740 351° North 520 598 40,000  Level FlightAware
09:21PM 33.0970 14.9540 351° North 519 597 40,000  Level FlightAware
09:22PM 33.1900 14.9370 351° North 520 598 40,000  Level FlightAware
09:23PM 33.2840 14.9190 351° North 520 598 40,000  Level FlightAware
09:24PM 33.4050 14.8970 351° North 523 602 40,000  Level FlightAware
09:24PM 33.5000 14.8790 351° North 525 604 40,000  Level FlightAware
09:25PM 33.6040 14.8600 351° North 526 605 40,000  Level FlightAware
09:26PM 33.7110 14.8390 351° North 526 605 40,000  Level FlightAware
09:26PM 33.8080 14.8210 351° North 526 605 40,000  Level FlightAware
09:27PM 33.9110 14.8020 351° North 528 608 40,000  Level FlightAware
09:28PM 34.0060 14.7840 351° North 530 610 40,000  Level FlightAware
09:28PM 34.1170 14.7630 351° North 531 611 40,000  Level FlightAware
09:29PM 34.2160 14.7430 351° North 529 609 40,000  Level FlightAware
09:30PM 34.3000 14.7150 345° North 520 598 40,000  Level FlightAware
09:31PM 34.4100 14.6600 338° Northwest 511 588 40,000  Level FlightAware
09:31PM 34.4980 14.6150 337° Northwest 513 590 40,000  Level FlightAware
09:32PM 34.5920 14.5660 337° Northwest 514 592 40,000  Level FlightAware
09:33PM 34.6790 14.5200 337° Northwest 515 593 40,000  Level FlightAware
09:33PM 34.7680 14.4730 337° Northwest 513 590 40,000  Level FlightAware
09:34PM 34.8650 14.4220 337° Northwest 514 592 40,000  Level FlightAware
09:35PM 34.9560 14.3740 337° Northwest 515 593 40,000  Level FlightAware
09:35PM 35.0520 14.3230 336° Northwest 514 592 40,000  Level FlightAware
09:36PM 35.1390 14.2770 337° Northwest 512 589 40,000  Level FlightAware
09:37PM 35.2340 14.2270 337° Northwest 514 592 40,000  Level FlightAware
09:38PM 35.3230 14.1790 336° Northwest 515 593 40,000  Level FlightAware
09:38PM 35.4100 14.1330 337° Northwest 515 593 40,000  Level FlightAware
09:39PM 35.5020 14.0830 336° Northwest 514 592 40,000  Level FlightAware
09:40PM 35.6020 14.0300 337° Northwest 515 593 40,000  Level FlightAware
09:40PM 35.6900 13.9820 336° Northwest 515 593 40,000  Level FlightAware
09:41PM 35.7860 13.9300 336° Northwest 514 592 40,000  Level FlightAware
09:42PM 35.8710 13.8840 336° Northwest 513 590 40,000  Level FlightAware
09:42PM 35.9640 13.8340 336° Northwest 513 590 40,000  Level FlightAware
09:43PM 36.0540 13.7850 336° Northwest 514 592 40,000  Level FlightAware
09:44PM 36.1420 13.7370 336° Northwest 514 592 40,000  Level FlightAware
09:44PM 36.2340 13.6860 336° Northwest 512 589 40,000  Level FlightAware
09:45PM 36.3280 13.6340 336° Northwest 515 593 40,000  Level FlightAware
09:46PM 36.4200 13.5840 336° Northwest 516 594 40,000  Level FlightAware
09:47PM 36.5090 13.5350 336° Northwest 515 593 40,000  Level FlightAware
09:47PM 36.5970 13.4830 335° Northwest 511 588 40,000  Level FlightAware
09:48PM 36.6870 13.4270 333° Northwest 513 590 40,000  Level FlightAware
09:49PM 36.7800 13.3710 334° Northwest 513 590 40,000  Level FlightAware
09:49PM 36.8640 13.3200 334° Northwest 509 586 40,000  Level FlightAware
09:50PM 36.9640 13.2680 337° Northwest 511 588 40,000  Level FlightAware
09:51PM 37.0540 13.2280 340° North 511 588 40,000  Level FlightAware
09:52PM 37.1540 13.1820 340° North 514 592 40,000  Level FlightAware
09:52PM 37.2420 13.1410 340° North 512 589 40,000  Level FlightAware
09:53PM 37.3390 13.0970 340° North 509 586 40,000  Level FlightAware
09:54PM 37.4260 13.0570 340° North 508 585 40,000  Level FlightAware
09:54PM 37.5250 13.0110 340° North 508 585 40,000  Level FlightAware
09:55PM 37.6140 12.9700 340° North 510 587 40,000  Level FlightAware
09:56PM 37.7120 12.9240 340° North 512 589 40,000  Level FlightAware
09:56PM 37.8000 12.8830 340° North 515 593 40,000  Level FlightAware
09:57PM 37.8970 12.8380 340° North 517 595 40,000  Level FlightAware
09:58PM 37.9900 12.7940 340° North 515 593 40,000  Level FlightAware
09:59PM 38.0800 12.7520 340° North 511 588 40,000  Level FlightAware
09:59PM 38.1770 12.7060 340° North 510 587 40,000  Level FlightAware
10:00PM 38.2670 12.6640 340° North 509 586 40,000  Level FlightAware
10:01PM 38.3620 12.6190 340° North 510 587 40,000  Level FlightAware
10:01PM 38.4520 12.5760 339° North 511 588 40,000  Level FlightAware
10:02PM 38.5460 12.5310 339° North 511 588 40,000  Level FlightAware
10:03PM 38.6420 12.4850 339° North 508 585 40,000  Level FlightAware
10:03PM 38.7250 12.4450 339° North 505 581 40,000  Level FlightAware
10:04PM 38.8260 12.3970 340° North 504 580 40,000  Level FlightAware
10:05PM 38.8990 12.3620 340° North 500 575 40,000  Level FlightAware
10:06PM 38.9990 12.3130 339° North 499 574 40,000  Level FlightAware
10:06PM 39.0900 12.2690 339° North 501 577 40,000  Level FlightAware
10:07PM 39.1910 12.2200 339° North 498 573 40,000  Level FlightAware
10:08PM 39.3240 12.1560 340° North 494 568 40,000  Level FlightAware
10:09PM 39.4190 12.1090 339° North 490 564 40,000  Level FlightAware
10:11PM 39.6890 11.9760 339° North 495 570 40,000  Level FlightAware
10:13PM 40.0160 11.8140 327° Northwest 481 554 40,000  Level FlightAware
10:14PM 39.9610 11.7485 327° Northwest  Level Estimated
10:14PM 40.1090 11.7670 339° North 486 559 40,000  Level FlightAware
10:15PM 40.1940 11.7240 339° North 485 558 40,000  Level FlightAware
10:16PM 40.2800 11.6810 339° North 485 558 40,000  Level FlightAware
10:16PM 40.3520 11.6450 339° North 483 556 40,000  Level FlightAware
10:17PM 40.4880 11.5760 339° North 480 552 40,000  Level FlightAware
10:18PM 40.5620 11.5390 339° North 479 551 40,000  Level FlightAware
10:19PM 40.6520 11.4930 339° North 469 540 40,000  Level FlightAware
10:19PM 40.7440 11.4440 338° Northwest 474 545 40,000  Level FlightAware
10:20PM 40.8310 11.3790 331° Northwest 466 536 40,000  Level FlightAware
10:21PM 40.8850 11.3390 331° Northwest 466 536 40,000  Level FlightAware
10:21PM 40.9840 11.2660 331° Northwest 465 535 40,000  Level FlightAware
10:22PM 41.0570 11.2110 330° Northwest 463 533 40,000  Level FlightAware
10:23PM 41.1420 11.1480 331° Northwest 462 532 40,000  Level FlightAware
10:23PM 41.2140 11.0940 331° Northwest 463 533 40,000  Level FlightAware
10:24PM 41.2990 11.0300 331° Northwest 461 531 40,000  Level FlightAware
10:25PM 41.3720 10.9760 331° Northwest 458 527 40,000  Level FlightAware
10:26PM 41.4490 10.9180 331° Northwest 459 528 40,000  Level FlightAware
10:26PM 41.5290 10.8570 330° Northwest 449 517 40,000  Level FlightAware
10:27PM 41.6040 10.8000 330° Northwest 447 514 40,000  Level FlightAware
10:28PM 41.6760 10.7450 330° Northwest 446 513 40,000  Level FlightAware
10:28PM 41.7580 10.6830 331° Northwest 448 516 40,000  Level FlightAware
10:29PM 41.8310 10.6270 330° Northwest 449 517 40,000  Level FlightAware
10:30PM 41.9130 10.5640 330° Northwest 452 520 40,000  Level FlightAware
10:30PM 41.9890 10.5060 330° Northwest 460 529 40,000  Level FlightAware
10:31PM 42.0710 10.4430 330° Northwest 464 534 40,000  Level FlightAware
10:32PM 42.1360 10.3920 330° Northwest 466 536 40,000  Level FlightAware
10:33PM 42.2200 10.3270 330° Northwest 468 539 40,000  Level FlightAware
10:33PM 42.3040 10.2610 330° Northwest 463 533 40,000  Level FlightAware
10:34PM 42.3800 10.2020 330° Northwest 463 533 40,000  Level FlightAware
10:35PM 42.4640 10.1360 330° Northwest 466 536 40,000  Level FlightAware
10:35PM 42.5190 10.0940 331° Northwest 464 534 40,000  Level FlightAware
10:36PM 42.5860 10.0410 330° Northwest 463 533 40,000  Level FlightAware
10:36PM 42.6650 9.9790 330° Northwest 464 534 40,000  Level FlightAware
10:37PM 42.7370 9.9210 329° Northwest 468 539 40,000  Level FlightAware
10:38PM 42.8190 9.8560 330° Northwest 470 541 40,000  Level FlightAware
10:39PM 42.8950 9.7960 330° Northwest 468 539 40,000  Level FlightAware
10:39PM 42.9770 9.7310 330° Northwest 467 537 40,000  Level FlightAware
10:40PM 43.0520 9.6710 330° Northwest 463 533 40,000  Level FlightAware
10:41PM 43.1320 9.6060 329° Northwest 464 534 40,000  Level FlightAware
10:41PM 43.2070 9.5460 330° Northwest 466 536 40,000  Level FlightAware
10:42PM 43.2900 9.4790 330° Northwest 465 535 40,000  Level FlightAware
10:43PM 43.3600 9.4220 329° Northwest 469 540 40,000  Level FlightAware
10:43PM 43.4410 9.3560 329° Northwest 473 544 40,000  Level FlightAware
10:44PM 43.5240 9.2890 330° Northwest 474 545 40,000  Level FlightAware
10:45PM 43.5990 9.2270 329° Northwest 475 547 40,000  Level FlightAware
10:46PM 43.6750 9.1650 329° Northwest 476 548 40,000  Level FlightAware
10:46PM 43.7590 9.0960 329° Northwest 477 549 40,000  Level FlightAware
10:47PM 43.8390 9.0300 329° Northwest 476 548 40,000  Level FlightAware
10:48PM 43.9100 8.9710 329° Northwest 476 548 40,000  Level FlightAware
10:48PM 43.9930 8.9020 329° Northwest 475 547 40,000  Level FlightAware
10:49PM 44.0730 8.8360 329° Northwest 477 549 40,000  Level FlightAware
10:50PM 44.1570 8.7660 329° Northwest 477 549 40,000  Level FlightAware
10:50PM 44.2310 8.7040 329° Northwest 475 547 40,000  Level FlightAware
10:51PM 44.3160 8.6320 329° Northwest 473 544 40,000  Level FlightAware
10:52PM 44.3910 8.5690 329° Northwest 471 542 40,000  Level FlightAware
10:53PM 44.4660 8.5050 329° Northwest 470 541 40,000  Level FlightAware
10:53PM 44.5480 8.4360 329° Northwest 469 540 40,000  Level FlightAware
10:54PM 44.6250 8.3700 329° Northwest 468 539 40,000  Level FlightAware
10:55PM 44.7070 8.3000 329° Northwest 469 540 40,000  Level FlightAware
10:55PM 44.7840 8.2340 329° Northwest 465 535 40,000  Level FlightAware
10:56PM 44.8560 8.1720 329° Northwest 461 531 40,000  Level FlightAware
10:57PM 44.9300 8.1090 329° Northwest 460 529 40,000  Level FlightAware
10:57PM 45.0090 8.0400 328° Northwest 458 527 40,000  Level FlightAware
10:58PM 45.0880 7.9710 328° Northwest 459 528 40,000  Level FlightAware
10:59PM 45.1650 7.9050 329° Northwest 460 529 40,000  Level FlightAware
11:00PM 45.2360 7.8420 328° Northwest 462 532 40,000  Level FlightAware
11:00PM 45.3180 7.7710 329° Northwest 463 533 40,000  Level FlightAware
11:01PM 45.3880 7.7090 328° Northwest 464 534 40,000  Level FlightAware
11:02PM 45.4700 7.6370 328° Northwest 463 533 40,000  Level FlightAware
11:02PM 45.5430 7.5700 327° Northwest 461 531 40,000  Level FlightAware
11:03PM 45.6120 7.4890 321° Northwest 462 532 40,000  Level FlightAware
11:04PM 45.6790 7.4110 321° Northwest 464 534 40,000  Level FlightAware
11:04PM 45.7520 7.3280 322° Northwest 464 534 40,000  Level FlightAware
11:05PM 45.8240 7.2430 321° Northwest 464 534 40,000  Level FlightAware
11:06PM 45.8910 7.1660 321° Northwest 464 534 40,000  Level FlightAware
11:07PM 45.9640 7.0800 321° Northwest 464 534 40,000  Level FlightAware
11:07PM 46.0300 7.0030 321° Northwest 464 534 40,000  Level FlightAware
11:08PM 46.1040 6.9160 321° Northwest 466 536 40,000  Level FlightAware
11:09PM 46.1690 6.8390 321° Northwest 464 534 40,000  Level FlightAware
11:09PM 46.2390 6.7560 321° Northwest 463 533 40,000  Level FlightAware
11:10PM 46.3060 6.6760 320° Northwest 466 536 40,000  Level FlightAware
11:11PM 46.3640 6.6080 321° Northwest 468 539 40,000  Level FlightAware
11:11PM 46.4280 6.5310 320° Northwest 468 539 40,000  Level FlightAware
11:12PM 46.4930 6.4520 320° Northwest 467 537 40,000  Level FlightAware
11:13PM 46.5670 6.3640 321° Northwest 465 535 40,000  Level FlightAware
11:13PM 46.6360 6.2810 320° Northwest 462 532 40,000  Level FlightAware
11:14PM 46.7020 6.2000 320° Northwest 462 532 40,000  Level FlightAware
11:15PM 46.7630 6.1230 319° Northwest 463 533 40,000  Level FlightAware
11:15PM 46.8410 6.0220 318° Northwest 463 533 40,000  Level FlightAware
11:16PM 46.9070 5.9360 318° Northwest 461 531 40,000  Level FlightAware
11:17PM 46.9750 5.8490 319° Northwest 461 531 40,000  Level FlightAware
11:18PM 47.0380 5.7660 318° Northwest 459 528 40,000  Level FlightAware
11:18PM 47.1090 5.6740 319° Northwest 458 527 40,000  Level FlightAware
11:19PM 47.1730 5.5900 318° Northwest 461 531 40,000  Level FlightAware
11:20PM 47.2420 5.5000 318° Northwest 465 535 40,000 -660 Level FlightAware
11:20PM 47.3060 5.4160 318° Northwest 467 537 39,100 -2,100 Descending FlightAware
11:21PM 47.3750 5.3240 318° Northwest 473 544 37,100 -2,820 Descending FlightAware
11:22PM 47.4460 5.2300 318° Northwest 474 545 35,100 -2,760 Descending FlightAware
11:22PM 47.5110 5.1440 318° Northwest 471 542 33,300 -2,580 Descending FlightAware
11:23PM 47.5830 5.0480 318° Northwest 460 529 31,500 -2,100 Descending FlightAware
11:24PM 47.6410 4.9700 318° Northwest 449 517 30,400 -1,800 Descending FlightAware
11:25PM 47.7080 4.8790 318° Northwest 442 509 29,100 -1,800 Descending FlightAware
11:25PM 47.7740 4.7910 318° Northwest 439 505 27,800 -1,860 Descending FlightAware
11:26PM 47.8330 4.7110 318° Northwest 431 496 26,600 -1,740 Descending FlightAware
11:27PM 47.8970 4.6240 318° Northwest 426 490 25,400 -1,740 Descending FlightAware
11:27PM 47.9560 4.5430 317° Northwest 422 486 24,200 -1,800 Descending FlightAware
11:28PM 48.0190 4.4560 317° Northwest 416 479 22,900 -1,740 Descending FlightAware
11:29PM 48.0750 4.3790 317° Northwest 407 468 21,800 -1,680 Descending FlightAware
11:29PM 48.1360 4.2950 317° Northwest 399 459 20,600 -1,740 Descending FlightAware
11:30PM 48.1900 4.2200 317° Northwest 394 453 19,400 -1,680 Descending FlightAware
11:31PM 48.2450 4.1450 318° Northwest 387 445 18,400 -1,560 Descending FlightAware
11:32PM 48.2990 4.0690 317° Northwest 385 443 17,300 -1,680 Descending FlightAware
11:32PM 48.3550 3.9900 317° Northwest 378 435 16,100 -1,740 Descending FlightAware
11:33PM 48.4130 3.9100 318° Northwest 389 448 14,800 -1,860 Descending FlightAware
11:34PM 48.4670 3.8330 317° Northwest 384 442 13,500 -1,740 Descending FlightAware
11:34PM 48.5180 3.7630 318° Northwest 377 434 12,500 -1,560 Descending FlightAware
11:35PM 48.5640 3.6740 308° West 360 414 11,400 -1,020 Descending FlightAware
11:36PM 48.6000 3.5900 303° West 325 374 11,100 -420 Descending FlightAware
11:36PM 48.6150 3.5620 309° West 318 366 11,000 -480 Descending FlightAware
11:37PM 48.6640 3.5190 330° Northwest 296 341 10,700 -540 Descending FlightAware
11:37PM 48.7100 3.4790 330° Northwest 275 316 10,300 -540 Descending FlightAware
11:38PM 48.7580 3.4290 326° Northwest 269 310 10,000 -360 Descending FlightAware
11:39PM 48.7780 3.3960 313° West 266 306 9,900 -720 Descending FlightAware
11:39PM 48.7990 3.3630 314° West 263 303 9,400 -1,320 Descending FlightAware
11:39PM 48.8210 3.3280 314° West 261 300 8,800 -1,320 Descending FlightAware
11:40PM 48.8440 3.2890 312° West 260 299 8,200 -1,200 Descending FlightAware
11:41PM 48.8820 3.2260 313° West 253 291 7,300 -1,320 Descending FlightAware
11:41PM 48.9050 3.1860 311° West 257 296 6,600 -1,320 Descending FlightAware
11:42PM 48.9260 3.1480 310° West 253 291 6,100 -1,080 Descending FlightAware
11:42PM 48.9480 3.1100 311° West 249 287 5,600 -1,200 Descending FlightAware
11:42PM 48.9660 3.0780 311° West 250 288 5,100 -1,380 Descending FlightAware
11:43PM 48.9860 3.0370 307° West 246 283 4,400 -960 Descending FlightAware
11:43PM 49.0030 2.9950 302° West 231 266 4,200 -480 Descending FlightAware
11:44PM 49.0120 2.9550 289° West 206 237 4,000 -240 Descending FlightAware
11:44PM 49.0110 2.9140 268° West 178 205 4,000  Level FlightAware
11:45PM 49.0100 2.8980 265° West 162 186 4,000 -300 Level FlightAware
11:45PM 49.0090 2.8700 267° West 163 188 3,800 -720 Descending FlightAware
11:46PM 49.0070 2.8400 264° West 159 183 3,400 -900 Descending FlightAware
11:46PM 49.0050 2.8080 265° West 157 181 3,000 -900 Descending FlightAware
11:46PM 49.0040 2.7770 267° West 158 182 2,600 -900 Descending FlightAware
11:47PM 49.0030 2.7450 267° West 158 182 2,200 -900 Descending FlightAware
11:47PM 49.0010 2.7160 264° West 133 153 1,800 -780 Descending FlightAware
11:48PM 49.0000 2.6910 267° West 120 138 1,500 -660 Descending FlightAware
11:48PM 48.9980 2.6680 262° West 119 137 1,200 -720 Descending FlightAware
11:49PM 48.9980 2.6550 270° West 127 146 1,000 -840 Descending FlightAware
11:49PM 48.9970 2.6350 266° West 117 135 700 -720 Descending FlightAware
11:49PM 48.9950 2.6100 263° West 121 139 400 -600 Descending FlightAware
11:50PM 48.9940 2.5850 267° West 90 104 -840 Descending FlightAware
11:50PM 48.9940 2.5810 270° West 76 87  Level FlightAware
11:51PM 48.9940 2.5730 270° West 25 29  Level FlightAware
11:53PM 49.0128 2.5500 321° Northwest  Level Estimated
11:54PM 49.0128 2.5500 180° South  Level Estimated
11:55PM 49.0128 2.5500 180° South  Level Estimated
11:56PM 49.0128 2.5500 180° South  Level Estimated
11:57PM 49.0128 2.5500 180° South  Level Estimated
11:58PM 49.0128 2.5500 180° South  Level Estimated
11:59PM 49.0128 2.5500 180° South  Level Estimated
12:00AM 49.0128 2.5500 180° South  Level Estimated
12:01AM 49.0128 2.5500 180° South  Level Estimated
12:02AM 49.0128 2.5500 180° South  Level Estimated
12:03AM 49.0128 2.5500 180° South  Level Estimated
12:04AM 49.0128 2.5500 180° South  Level Estimated
12:05AM 49.0128 2.5500 180° South  Level Estimated